Time;durP1;ratioP1;P1;durP2;ratioP2;P2;SDS_P1;SDS_P2;PMS_P1;PMS_P2;Temp;Humidity;BMP_temperature;BMP_pressure;BME280_temperature;BME280_humidity;BME280_pressure;Samples;Min_cycle;Max_cycle;Signal;HPM_P1;HPM_P2
2022/06/07 00:01:34;;;;;;;3.50;0.98;;;;;;;16.06;100.00;95894.00;5017353;28;24490;-77
2022/06/07 00:04:01;;;;;;;3.30;1.17;;;;;;;16.10;99.72;95892.78;5001056;28;24483;-76
2022/06/07 00:06:30;;;;;;;2.53;1.10;;;;;;;16.11;98.77;95887.41;5017471;28;24440;-77
2022/06/07 00:08:56;;;;;;;2.35;0.98;;;;;;;16.15;98.11;95894.03;5017535;28;24428;-77
2022/06/07 00:11:23;;;;;;;1.38;0.95;;;;;;;16.02;97.05;95893.41;5017888;28;24439;-78
2022/06/07 00:13:50;;;;;;;2.30;1.00;;;;;;;16.05;96.91;95900.97;5018406;28;24436;-77
2022/06/07 00:16:18;;;;;;;1.38;1.00;;;;;;;15.99;97.82;95898.06;5018224;28;24460;-77
2022/06/07 00:18:45;;;;;;;2.63;1.10;;;;;;;15.90;96.98;95894.41;5017584;28;24494;-77
2022/06/07 00:21:11;;;;;;;2.22;1.02;;;;;;;15.86;98.29;95900.84;5017126;28;24441;-77
2022/06/07 00:23:39;;;;;;;2.60;1.10;;;;;;;15.75;99.94;95899.09;5000675;28;24846;-77
2022/06/07 00:26:06;;;;;;;0.98;0.80;;;;;;;15.77;98.46;95888.53;5016548;28;24437;-77
2022/06/07 00:28:33;;;;;;;2.78;0.88;;;;;;;15.79;97.45;95904.91;5016552;28;24440;-77
2022/06/07 00:31:00;;;;;;;1.55;0.77;;;;;;;15.84;98.67;95900.16;5016366;28;24978;-77
2022/06/07 00:33:27;;;;;;;1.90;0.80;;;;;;;15.72;100.00;95902.81;5016163;28;24444;-75
2022/06/07 00:35:54;;;;;;;1.80;1.00;;;;;;;15.55;100.00;95895.47;5016396;28;24436;-76
2022/06/07 00:38:21;;;;;;;2.60;0.98;;;;;;;15.36;100.00;95895.28;5015929;28;24466;-77
2022/06/07 00:40:49;;;;;;;1.67;0.90;;;;;;;15.27;100.00;95896.00;5017143;28;24448;-76
2022/06/07 00:43:15;;;;;;;1.23;0.73;;;;;;;15.20;100.00;95896.50;5022053;28;24441;-77
2022/06/07 00:45:42;;;;;;;4.35;1.02;;;;;;;15.16;100.00;95889.84;5018566;28;24520;-77
2022/06/07 00:48:09;;;;;;;3.63;0.80;;;;;;;15.07;100.00;95895.81;5018016;28;24447;-77
2022/06/07 00:50:44;;;;;;;1.52;0.82;;;;;;;15.20;100.00;95896.50;5016683;28;24440;-77
2022/06/07 00:53:22;;;;;;;1.50;0.80;;;;;;;15.08;100.00;95892.25;5016367;28;24455;-76
2022/06/07 00:55:50;;;;;;;2.05;0.90;;;;;;;15.02;100.00;95887.53;5016866;28;24467;-76
2022/06/07 00:58:17;;;;;;;4.50;0.80;;;;;;;15.03;100.00;95891.78;5017080;28;24463;-76
2022/06/07 01:00:43;;;;;;;1.67;0.60;;;;;;;14.95;100.00;95884.56;5011432;28;24429;-76
2022/06/07 01:03:10;;;;;;;1.40;0.60;;;;;;;14.96;100.00;95880.19;5011619;28;24487;-77
2022/06/07 01:05:37;;;;;;;2.67;0.80;;;;;;;14.87;100.00;95881.75;5010944;28;24988;-76
2022/06/07 01:10:51;;;;;;;1.17;0.75;;;;;;;14.93;100.00;95877.81;5011357;28;24458;-77
2022/06/07 01:13:21;;;;;;;1.40;0.77;;;;;;;15.01;100.00;95884.06;5011497;28;24416;-76
2022/06/07 01:15:49;;;;;;;2.10;0.75;;;;;;;15.10;100.00;95879.94;5011259;28;24424;-76
2022/06/07 01:18:16;;;;;;;0.98;0.63;;;;;;;15.20;100.00;95880.88;5011151;28;24464;-76
2022/06/07 01:20:43;;;;;;;1.02;0.63;;;;;;;15.26;100.00;95889.97;5011493;28;24431;-76
2022/06/07 01:23:11;;;;;;;1.27;0.60;;;;;;;15.33;100.00;95877.25;5011339;28;24494;-76
2022/06/07 01:25:37;;;;;;;1.60;0.80;;;;;;;15.13;100.00;95879.69;5010845;28;25012;-76
2022/06/07 01:28:04;;;;;;;0.88;0.57;;;;;;;15.12;100.00;95879.78;5010769;28;24428;-76
2022/06/07 01:30:31;;;;;;;1.25;0.55;;;;;;;15.22;100.00;95881.56;5011282;28;24435;-76
2022/06/07 01:32:57;;;;;;;0.88;0.60;;;;;;;15.25;100.00;95883.91;5011219;28;24482;-76
2022/06/07 01:35:24;;;;;;;1.70;0.70;;;;;;;15.29;100.00;95884.50;5010788;28;24433;-76
2022/06/07 01:37:50;;;;;;;3.50;0.60;;;;;;;15.23;100.00;95872.75;5010749;28;24539;-76
2022/06/07 01:43:13;;;;;;;0.90;0.60;;;;;;;14.89;100.00;95868.56;4950195;29;24977;-76
2022/06/07 01:45:40;;;;;;;1.70;0.63;;;;;;;14.90;100.00;95867.59;4980883;28;24441;-76
2022/06/07 01:48:07;;;;;;;1.20;0.60;;;;;;;14.92;100.00;95865.72;4991392;28;24432;-76
2022/06/07 01:50:33;;;;;;;1.85;0.80;;;;;;;15.02;100.00;95864.06;4991574;28;24525;-76
2022/06/07 01:53:00;;;;;;;1.33;0.50;;;;;;;15.00;100.00;95864.16;4997705;28;24463;-76
2022/06/07 01:55:27;;;;;;;0.95;0.47;;;;;;;14.98;100.00;95862.63;5010455;28;24980;-77
2022/06/07 01:57:54;;;;;;;2.60;0.77;;;;;;;14.87;100.00;95858.28;5010793;28;24472;-76
2022/06/07 02:00:20;;;;;;;1.98;0.70;;;;;;;14.83;100.00;95862.06;5010902;28;24432;-76
2022/06/07 02:02:47;;;;;;;1.38;0.70;;;;;;;14.86;100.00;95850.53;5010972;28;24552;-76
2022/06/07 02:05:15;;;;;;;1.10;0.60;;;;;;;14.98;100.00;95846.97;5010537;28;24417;-76
2022/06/07 02:07:41;;;;;;;1.67;0.70;;;;;;;14.91;100.00;95851.03;5010770;28;24476;-77
2022/06/07 02:10:09;;;;;;;1.50;0.60;;;;;;;14.94;100.00;95846.41;5010772;28;24424;-77
2022/06/07 02:12:37;;;;;;;1.23;0.50;;;;;;;14.96;100.00;95849.72;5010797;28;24428;-76
2022/06/07 02:15:04;;;;;;;1.00;0.60;;;;;;;15.00;100.00;95845.91;5013648;28;24444;-76
2022/06/07 02:17:31;;;;;;;0.50;0.30;;;;;;;14.82;100.00;95842.13;5014372;28;24435;-76
2022/06/07 02:19:57;;;;;;;1.75;0.43;;;;;;;14.86;100.00;95845.34;5014592;28;24455;-77
2022/06/07 02:22:23;;;;;;;1.80;0.50;;;;;;;14.93;100.00;95836.06;5014517;28;24549;-77
2022/06/07 02:24:50;;;;;;;0.50;0.43;;;;;;;14.95;99.95;95832.41;5014257;28;24512;-77
2022/06/07 02:27:20;;;;;;;2.08;0.60;;;;;;;14.83;100.00;95837.75;5014275;28;24435;-76
2022/06/07 02:29:50;;;;;;;1.00;0.60;;;;;;;14.76;100.00;95832.22;5013787;28;24516;-76
2022/06/07 02:32:22;;;;;;;0.90;0.60;;;;;;;14.80;100.00;95822.38;5014222;28;24424;-76
2022/06/07 02:34:53;;;;;;;1.13;0.50;;;;;;;14.79;100.00;95813.69;5013954;28;24790;-77
2022/06/07 02:37:21;;;;;;;0.70;0.30;;;;;;;14.85;100.00;95812.41;5013847;28;24922;-76
2022/06/07 02:39:48;;;;;;;1.17;0.60;;;;;;;14.87;100.00;95813.94;5014095;28;24559;-77
2022/06/07 02:42:17;;;;;;;1.70;0.50;;;;;;;14.92;100.00;95813.56;5013935;28;24957;-76
2022/06/07 02:44:44;;;;;;;1.60;0.60;;;;;;;14.99;100.00;95820.78;5013808;28;24503;-76
2022/06/07 02:47:12;;;;;;;0.75;0.43;;;;;;;14.84;100.00;95823.78;5014142;28;24474;-76
2022/06/07 02:49:38;;;;;;;2.53;0.68;;;;;;;14.86;100.00;95819.25;5014135;28;24427;-76
2022/06/07 02:52:05;;;;;;;4.10;0.70;;;;;;;14.86;100.00;95814.88;5014009;28;24428;-76
2022/06/07 02:54:31;;;;;;;0.70;0.60;;;;;;;14.83;100.00;95820.34;5013831;28;24503;-76
2022/06/07 02:56:58;;;;;;;0.80;0.52;;;;;;;14.86;100.00;95819.25;5013587;28;24841;-77
2022/06/07 02:59:24;;;;;;;1.45;0.50;;;;;;;14.85;100.00;95815.81;5013576;28;24973;-76
2022/06/07 03:01:51;;;;;;;0.75;0.50;;;;;;;14.81;100.00;95795.34;5013980;28;24487;-76
2022/06/07 03:04:19;;;;;;;0.77;0.60;;;;;;;14.89;100.00;95800.78;5013621;28;24467;-76
2022/06/07 03:06:45;;;;;;;2.60;0.50;;;;;;;14.87;100.00;95794.84;5013721;28;24520;-75
2022/06/07 03:09:12;;;;;;;1.50;0.70;;;;;;;14.86;100.00;95803.63;5013649;28;24475;-76
2022/06/07 03:11:38;;;;;;;1.92;0.60;;;;;;;14.75;100.00;95801.84;5013784;28;24427;-76
2022/06/07 03:14:05;;;;;;;1.27;0.50;;;;;;;14.73;99.68;95799.38;5013504;28;24444;-77
2022/06/07 03:16:32;;;;;;;1.08;0.55;;;;;;;14.73;100.00;95802.00;5013066;28;24531;-76
2022/06/07 03:19:00;;;;;;;2.53;0.50;;;;;;;14.62;100.00;95799.41;5013101;28;24503;-77
2022/06/07 03:21:29;;;;;;;1.63;0.73;;;;;;;14.63;100.00;95802.81;5013359;28;24472;-76
2022/06/07 03:23:55;;;;;;;0.60;0.50;;;;;;;14.64;100.00;95805.31;5013360;28;24503;-76
2022/06/07 03:26:22;;;;;;;0.80;0.40;;;;;;;14.71;100.00;95803.88;5011765;28;24515;-76
2022/06/07 03:28:49;;;;;;;0.60;0.45;;;;;;;14.74;100.00;95808.84;4993085;28;24436;-76
2022/06/07 03:31:17;;;;;;;1.80;0.70;;;;;;;14.66;100.00;95806.03;4993297;28;24464;-76
2022/06/07 03:33:45;;;;;;;0.65;0.47;;;;;;;14.62;100.00;95802.00;4992985;28;24432;-76
2022/06/07 03:36:15;;;;;;;1.17;0.50;;;;;;;14.68;100.00;95798.91;4993105;28;24503;-76
2022/06/07 03:38:43;;;;;;;1.95;0.60;;;;;;;14.75;100.00;95788.81;5011606;28;25028;-76
2022/06/07 03:41:15;;;;;;;1.13;0.60;;;;;;;14.79;99.85;95787.63;5022915;28;24424;-77
2022/06/07 03:43:41;;;;;;;1.30;0.70;;;;;;;14.76;100.00;95804.34;5015375;28;24436;-77
2022/06/07 03:46:10;;;;;;;1.50;0.70;;;;;;;14.74;100.00;95803.63;5013227;28;24490;-76
2022/06/07 03:48:37;;;;;;;0.93;0.60;;;;;;;14.79;100.00;95803.25;5012949;28;24791;-76
2022/06/07 03:51:03;;;;;;;1.10;0.60;;;;;;;14.77;100.00;95805.19;5013121;28;24436;-77
2022/06/07 03:53:30;;;;;;;6.00;0.90;;;;;;;14.74;100.00;95808.84;5012727;28;24513;-76
2022/06/07 03:55:58;;;;;;;0.90;0.60;;;;;;;14.65;100.00;95812.19;5012414;28;24958;-76
2022/06/07 03:58:24;;;;;;;0.73;0.50;;;;;;;14.71;100.00;95810.88;5012564;28;24487;-76
2022/06/07 04:00:51;;;;;;;2.92;0.80;;;;;;;14.71;100.00;95816.09;5012691;28;24440;-76
2022/06/07 04:03:18;;;;;;;1.58;0.70;;;;;;;14.69;100.00;95807.56;5012272;28;25013;-76
2022/06/07 04:05:46;;;;;;;1.30;0.70;;;;;;;14.74;100.00;95810.63;5012748;28;24431;-76
2022/06/07 04:08:12;;;;;;;1.60;0.80;;;;;;;14.72;100.00;95807.31;5012558;28;24827;-76
2022/06/07 04:10:46;;;;;;;2.60;0.90;;;;;;;14.69;100.00;95812.78;5012335;28;24423;-76
2022/06/07 04:13:14;;;;;;;1.52;0.55;;;;;;;14.71;100.00;95811.69;5012498;28;25013;-76
2022/06/07 04:15:40;;;;;;;1.52;0.75;;;;;;;14.70;100.00;95809.22;5011993;28;24436;-76
2022/06/07 04:18:07;;;;;;;1.00;0.70;;;;;;;14.50;100.00;95809.00;5012194;28;24530;-76
2022/06/07 04:20:34;;;;;;;0.73;0.60;;;;;;;14.55;100.00;95810.41;5012177;28;24456;-76
2022/06/07 04:23:01;;;;;;;0.85;0.60;;;;;;;14.42;100.00;95815.72;5008805;28;24435;-75
2022/06/07 04:25:27;;;;;;;2.55;0.88;;;;;;;14.32;100.00;95809.56;5012573;28;24445;-75
2022/06/07 04:27:54;;;;;;;1.20;0.63;;;;;;;14.48;100.00;95812.63;5012313;28;24838;-75
2022/06/07 04:30:22;;;;;;;1.07;0.67;;;;;;;14.44;100.00;95811.22;5011745;28;24424;-75
2022/06/07 04:32:49;;;;;;;1.63;0.70;;;;;;;14.49;100.00;95816.88;5012845;28;24448;-75
2022/06/07 04:35:18;;;;;;;1.02;0.70;;;;;;;14.46;100.00;95817.13;5011754;28;24440;-75
2022/06/07 04:37:45;;;;;;;1.58;0.60;;;;;;;14.51;100.00;95820.25;5012268;28;24448;-75
2022/06/07 04:40:12;;;;;;;1.25;0.60;;;;;;;14.59;100.00;95827.47;5011893;28;25401;-75
2022/06/07 04:42:38;;;;;;;2.10;0.63;;;;;;;14.67;100.00;95832.91;5012727;28;24854;-75
2022/06/07 04:45:09;;;;;;;0.65;0.50;;;;;;;14.59;100.00;95833.50;5011911;28;24977;-75
2022/06/07 04:47:37;;;;;;;1.52;0.77;;;;;;;14.62;100.00;95830.66;5012357;28;24534;-75
2022/06/07 04:50:05;;;;;;;1.58;0.60;;;;;;;14.62;100.00;95833.28;5012005;28;24997;-75
2022/06/07 04:52:31;;;;;;;0.95;0.60;;;;;;;14.67;100.00;95836.34;5012152;28;24425;-75
2022/06/07 04:54:58;;;;;;;1.63;0.75;;;;;;;14.69;100.00;95838.84;5012110;28;24448;-75
2022/06/07 04:57:24;;;;;;;0.80;0.70;;;;;;;14.79;100.00;95844.16;4996238;28;24444;-75
2022/06/07 04:59:51;;;;;;;1.10;0.70;;;;;;;14.85;100.00;95838.47;5012426;28;24440;-75
2022/06/07 05:02:17;;;;;;;2.15;0.77;;;;;;;14.88;100.00;95840.84;5012472;28;24498;-75
2022/06/07 05:04:46;;;;;;;1.10;0.70;;;;;;;14.84;100.00;95840.25;5012309;28;24440;-75
2022/06/07 05:07:12;;;;;;;1.42;0.60;;;;;;;14.92;100.00;95844.88;5011660;28;24522;-75
2022/06/07 05:09:39;;;;;;;1.40;0.60;;;;;;;14.96;100.00;95851.50;5011767;28;24815;-75
2022/06/07 05:12:06;;;;;;;1.17;0.60;;;;;;;14.91;100.00;95845.81;5012366;28;24837;-75
2022/06/07 05:14:34;;;;;;;1.77;0.88;;;;;;;14.88;100.00;95852.09;5011304;28;22330;-75
2022/06/07 05:17:00;;;;;;;2.28;0.80;;;;;;;14.92;100.00;95850.91;5011532;28;24989;-75
2022/06/07 05:19:29;;;;;;;1.58;0.80;;;;;;;15.01;100.00;95854.56;5012067;28;24459;-75
2022/06/07 05:21:56;;;;;;;1.20;0.80;;;;;;;14.97;100.00;95853.97;5012378;28;24447;-75
2022/06/07 05:24:23;;;;;;;1.80;0.60;;;;;;;15.05;100.00;95862.97;5012085;28;24444;-75
2022/06/07 05:26:52;;;;;;;1.35;0.73;;;;;;;15.08;100.00;95860.13;5011976;28;24440;-73
2022/06/07 05:29:21;;;;;;;1.90;0.80;;;;;;;15.06;100.00;95865.47;5006412;28;24523;-74
2022/06/07 05:31:49;;;;;;;1.13;0.75;;;;;;;15.13;100.00;95856.22;5008928;28;24432;-75
2022/06/07 05:34:15;;;;;;;2.83;0.90;;;;;;;15.10;100.00;95864.28;5013545;28;24436;-74
2022/06/07 05:36:42;;;;;;;1.83;0.90;;;;;;;15.06;100.00;95868.06;5014109;28;24459;-74
2022/06/07 05:39:20;;;;;;;2.05;0.90;;;;;;;15.13;100.00;95871.88;5008677;28;24464;-74
2022/06/07 05:41:46;;;;;;;2.63;0.90;;;;;;;15.10;100.00;95873.88;5012688;28;24458;-75
2022/06/07 05:44:13;;;;;;;0.93;0.60;;;;;;;15.06;100.00;95878.50;4992798;28;24990;-74
2022/06/07 05:46:40;;;;;;;2.50;0.90;;;;;;;15.22;100.00;95865.06;4992387;28;24500;-74
2022/06/07 05:49:06;;;;;;;1.88;0.65;;;;;;;15.23;100.00;95862.31;4992436;28;24487;-75
2022/06/07 05:51:33;;;;;;;1.73;1.00;;;;;;;15.32;100.00;95862.56;5007819;28;24440;-76
2022/06/07 05:53:59;;;;;;;1.95;0.75;;;;;;;15.44;100.00;95867.63;5011876;28;24440;-76
2022/06/07 05:56:27;;;;;;;2.28;0.73;;;;;;;15.57;100.00;95866.63;5012798;28;24495;-75
2022/06/07 05:58:54;;;;;;;1.00;0.55;;;;;;;15.49;100.00;95862.84;5012367;28;24978;-75
2022/06/07 06:01:20;;;;;;;1.48;0.70;;;;;;;15.65;100.00;95859.00;5012482;28;24985;-76
2022/06/07 06:03:46;;;;;;;2.03;0.73;;;;;;;15.72;100.00;95862.78;5012461;28;24437;-73
2022/06/07 06:06:14;;;;;;;1.53;0.80;;;;;;;15.65;100.00;95865.09;5011127;28;24899;-74
2022/06/07 06:11:28;;;;;;;0.93;0.60;;;;;;;15.52;100.00;95877.44;4995502;28;24431;-74
2022/06/07 06:13:55;;;;;;;1.00;0.70;;;;;;;15.77;100.00;95878.09;5012109;28;24436;-74
2022/06/07 06:16:23;;;;;;;1.00;0.68;;;;;;;16.02;100.00;95882.13;5012214;28;24457;-74
2022/06/07 06:18:52;;;;;;;3.17;0.80;;;;;;;16.11;100.00;95882.19;5012207;28;24440;-74
2022/06/07 06:21:19;;;;;;;1.50;0.80;;;;;;;16.15;100.00;95883.59;5011963;28;24977;-74
2022/06/07 06:23:47;;;;;;;2.70;0.70;;;;;;;16.25;99.95;95880.22;5011284;28;24818;-74
2022/06/07 06:26:16;;;;;;;1.52;0.80;;;;;;;16.57;98.61;95883.53;4994576;28;24428;-74
2022/06/07 06:28:44;;;;;;;2.45;0.85;;;;;;;16.99;100.00;95888.72;4992232;28;24434;-74
2022/06/07 06:31:12;;;;;;;4.85;0.77;;;;;;;17.14;96.59;95883.94;5000048;28;24432;-75
2022/06/07 06:33:40;;;;;;;1.08;0.50;;;;;;;17.40;96.30;95877.25;5011878;28;24441;-75
2022/06/07 06:36:08;;;;;;;3.33;1.00;;;;;;;17.46;93.84;95886.34;5011570;28;25033;-75
2022/06/07 06:38:35;;;;;;;1.02;0.60;;;;;;;17.64;92.82;95882.09;5011519;28;24495;-74
2022/06/07 06:41:08;;;;;;;8.55;1.20;;;;;;;17.85;87.59;95884.63;5010513;28;25069;-75
2022/06/07 06:43:34;;;;;;;1.20;0.80;;;;;;;17.80;87.59;95880.78;5012394;28;24478;-75
2022/06/07 06:46:05;;;;;;;1.95;0.82;;;;;;;17.78;88.43;95877.44;5011879;28;24452;-74
2022/06/07 06:48:32;;;;;;;1.67;0.77;;;;;;;17.66;87.82;95866.25;5011769;28;24447;-74
2022/06/07 06:51:01;;;;;;;1.00;0.60;;;;;;;17.58;89.22;95863.50;5011371;28;24413;-74
2022/06/07 06:53:28;;;;;;;0.77;0.50;;;;;;;17.49;89.60;95865.13;5011898;28;24440;-74
2022/06/07 06:55:55;;;;;;;2.90;0.70;;;;;;;17.41;88.50;95867.59;5011697;28;24559;-74
2022/06/07 06:58:24;;;;;;;1.27;0.70;;;;;;;17.32;90.11;95871.88;5012173;28;24443;-74
2022/06/07 07:01:00;;;;;;;2.35;0.80;;;;;;;17.63;86.63;95866.53;5013611;28;24506;-75
2022/06/07 07:03:28;;;;;;;2.75;0.57;;;;;;;17.54;83.97;95862.94;5015380;28;24417;-74
2022/06/07 07:05:55;;;;;;;1.88;0.50;;;;;;;17.23;84.52;95854.34;4995915;28;25057;-74
2022/06/07 07:08:22;;;;;;;4.40;0.60;;;;;;;17.21;84.24;95863.31;5002267;28;24447;-74
2022/06/07 07:10:49;;;;;;;1.55;0.70;;;;;;;17.17;83.62;95871.44;5015258;28;24447;-74
2022/06/07 07:13:15;;;;;;;1.45;0.50;;;;;;;17.15;82.42;95868.09;5014899;28;24981;-74
2022/06/07 07:15:46;;;;;;;1.05;0.60;;;;;;;17.24;82.29;95863.00;5014607;28;24429;-75
2022/06/07 07:18:14;;;;;;;1.90;0.53;;;;;;;17.12;80.38;95863.13;5013936;28;24869;-74
2022/06/07 07:20:42;;;;;;;0.85;0.60;;;;;;;17.03;81.66;95865.75;5013522;28;24918;-74
2022/06/07 07:23:08;;;;;;;1.80;0.60;;;;;;;17.07;81.39;95867.94;5014572;28;24838;-75
2022/06/07 07:25:35;;;;;;;2.13;0.70;;;;;;;17.23;80.14;95870.03;5014109;28;24984;-74
2022/06/07 07:28:02;;;;;;;1.88;0.65;;;;;;;17.26;79.87;95872.41;4995091;28;24472;-74
2022/06/07 07:30:29;;;;;;;4.30;0.70;;;;;;;17.27;81.28;95860.97;5000066;28;24440;-74
2022/06/07 07:32:56;;;;;;;1.15;0.63;;;;;;;16.86;82.86;95869.81;5014324;28;24478;-74
2022/06/07 07:35:23;;;;;;;2.00;0.70;;;;;;;16.86;82.60;95870.63;5012946;28;25006;-74
2022/06/07 07:37:51;;;;;;;2.53;0.63;;;;;;;17.12;85.27;95872.78;5013301;28;24435;-74
2022/06/07 07:40:18;;;;;;;2.83;0.70;;;;;;;17.13;80.83;95879.66;5013284;28;24552;-75
2022/06/07 07:42:44;;;;;;;0.57;0.47;;;;;;;16.77;79.62;95886.31;5014377;28;24543;-75
2022/06/07 07:45:13;;;;;;;1.15;0.47;;;;;;;16.76;77.31;95889.84;5014872;28;24451;-75
2022/06/07 07:47:39;;;;;;;2.70;1.00;;;;;;;16.77;79.47;95879.28;5013937;28;24472;-74
2022/06/07 07:50:06;;;;;;;1.70;0.50;;;;;;;16.57;81.13;95878.31;5014201;28;24436;-74
2022/06/07 07:52:33;;;;;;;1.17;0.57;;;;;;;16.67;81.51;95881.81;5014527;28;24441;-74
2022/06/07 07:55:01;;;;;;;1.25;0.57;;;;;;;16.86;78.88;95875.03;5014895;28;24444;-75
2022/06/07 07:57:27;;;;;;;0.82;0.40;;;;;;;17.04;78.04;95876.06;5015491;28;24452;-75
2022/06/07 07:59:54;;;;;;;0.80;0.63;;;;;;;17.10;76.78;95878.16;5014391;28;24985;-75
2022/06/07 08:02:22;;;;;;;1.80;0.70;;;;;;;17.20;76.56;95870.31;5015133;28;24440;-75
2022/06/07 08:04:49;;;;;;;2.60;0.52;;;;;;;17.56;77.85;95862.78;5014415;28;24806;-76
2022/06/07 08:07:16;;;;;;;1.45;0.50;;;;;;;17.47;78.19;95867.06;5015512;28;24424;-75
2022/06/07 08:09:42;;;;;;;1.50;0.73;;;;;;;17.62;77.71;95868.31;5015644;28;24870;-75
2022/06/07 08:12:11;;;;;;;1.20;0.55;;;;;;;18.32;73.28;95866.34;5013440;28;24560;-75
2022/06/07 08:14:38;;;;;;;1.63;0.77;;;;;;;18.56;71.86;95865.03;5012940;28;24447;-75
2022/06/07 08:17:04;;;;;;;3.70;0.80;;;;;;;18.52;71.89;95859.25;5003411;28;24444;-76
2022/06/07 08:19:32;;;;;;;1.77;0.63;;;;;;;18.96;71.34;95862.16;5015009;28;24416;-76
2022/06/07 08:21:58;;;;;;;1.38;0.50;;;;;;;19.05;71.61;95863.06;5014618;28;25020;-75
2022/06/07 08:24:25;;;;;;;1.23;0.47;;;;;;;19.34;73.01;95849.78;5014018;28;24451;-75
2022/06/07 08:26:52;;;;;;;3.30;1.05;;;;;;;19.79;74.67;95855.00;5013392;28;24432;-76
2022/06/07 08:29:20;;;;;;;2.67;0.80;;;;;;;19.39;70.09;95846.69;5012604;28;24441;-76
2022/06/07 08:31:47;;;;;;;6.37;1.37;;;;;;;19.58;71.59;95842.16;5013533;28;24451;-76
2022/06/07 08:39:44;;;;;;;4.28;0.50;;;;;;;19.72;64.93;95846.06;5012499;28;24404;-75
2022/06/07 08:42:18;;;;;;;1.50;0.65;;;;;;;19.32;66.24;95854.38;5013059;28;24428;-74
2022/06/07 08:44:48;;;;;;;1.80;0.63;;;;;;;19.20;67.42;95855.53;5013019;28;24436;-74
2022/06/07 08:47:18;;;;;;;2.38;0.90;;;;;;;18.75;67.66;95853.69;5012533;28;24431;-75
2022/06/07 08:49:45;;;;;;;3.00;0.68;;;;;;;18.15;70.47;95846.09;5013971;28;24439;-74
2022/06/07 08:52:16;;;;;;;2.00;0.68;;;;;;;18.62;71.67;95846.94;5013596;28;24958;-74
2022/06/07 08:54:43;;;;;;;0.90;0.60;;;;;;;19.45;69.94;95846.13;5013513;28;24747;-75
2022/06/07 08:57:19;;;;;;;1.20;0.60;;;;;;;19.51;67.04;95841.09;5012119;28;24445;-74
2022/06/07 08:59:50;;;;;;;1.48;0.68;;;;;;;19.28;66.99;95843.34;5012337;28;24427;-74
2022/06/07 09:02:35;;;;;;;2.00;0.77;;;;;;;19.28;67.41;95830.19;5012184;28;24443;-75
2022/06/07 09:05:01;;;;;;;4.45;0.70;;;;;;;19.13;68.33;95828.22;5012488;28;24416;-74
2022/06/07 09:07:28;;;;;;;3.10;0.83;;;;;;;19.15;67.75;95831.53;5012299;28;24442;-74
2022/06/07 09:12:59;;;;;;;1.27;0.55;;;;;;;19.59;65.19;95821.97;5012615;28;25306;-76
2022/06/07 09:15:31;;;;;;;1.30;0.70;;;;;;;19.74;65.39;95819.66;5012614;28;24420;-75
2022/06/07 09:17:59;;;;;;;1.88;0.47;;;;;;;20.58;64.16;95821.75;5012879;28;24440;-75
2022/06/07 09:20:32;;;;;;;0.90;0.52;;;;;;;20.40;59.93;95813.88;5012283;28;24543;-74
2022/06/07 09:23:00;;;;;;;1.77;0.80;;;;;;;20.34;62.17;95811.84;4992056;28;24432;-74
2022/06/07 09:25:29;;;;;;;5.22;0.50;;;;;;;19.53;63.79;95810.22;4992282;28;24428;-74
2022/06/07 09:27:58;;;;;;;0.85;0.40;;;;;;;19.65;65.25;95812.66;4991904;28;24974;-74
2022/06/07 09:30:28;;;;;;;0.80;0.47;;;;;;;19.51;64.34;95809.56;4992300;28;24512;-75
2022/06/07 09:32:55;;;;;;;0.65;0.43;;;;;;;19.62;66.15;95816.44;4992543;28;24440;-74
2022/06/07 09:35:24;;;;;;;3.72;0.73;;;;;;;19.61;67.36;95814.72;5001842;28;24447;-74
2022/06/07 09:37:55;;;;;;;1.52;0.65;;;;;;;19.59;68.05;95812.25;5012346;28;24436;-75
2022/06/07 09:40:29;;;;;;;1.23;0.60;;;;;;;19.52;67.85;95807.78;5013042;28;24428;-75
2022/06/07 09:43:05;;;;;;;2.13;0.80;;;;;;;19.98;68.45;95811.13;5012055;28;24432;-75
2022/06/07 09:45:37;;;;;;;0.85;0.50;;;;;;;20.00;65.15;95811.81;5011447;28;24436;-74
2022/06/07 09:48:25;;;;;;;1.25;0.60;;;;;;;19.82;65.22;95801.31;5012682;28;24448;-75
2022/06/07 09:50:57;;;;;;;1.48;0.40;;;;;;;19.50;64.75;95802.66;5011910;28;24495;-75
2022/06/07 09:53:24;;;;;;;1.75;0.63;;;;;;;19.20;67.07;95801.22;5012217;28;24432;-75
2022/06/07 09:56:05;;;;;;;0.70;0.50;;;;;;;19.05;66.92;95798.28;5011358;28;24431;-75
2022/06/07 09:58:47;;;;;;;3.40;0.70;;;;;;;18.90;67.57;95799.75;5013012;28;25033;-75
2022/06/07 10:01:20;;;;;;;1.77;0.52;;;;;;;18.93;68.36;95796.84;5013413;28;24483;-75
2022/06/07 10:03:49;;;;;;;1.02;0.50;;;;;;;18.92;66.80;95797.81;5012510;28;24432;-75
2022/06/07 10:06:26;;;;;;;0.57;0.40;;;;;;;18.98;66.35;95799.81;5012001;28;25011;-75
2022/06/07 10:09:15;;;;;;;0.75;0.50;;;;;;;19.20;69.32;95787.25;5012524;28;24441;-75
2022/06/07 10:11:49;;;;;;;1.10;0.50;;;;;;;19.51;68.86;95782.47;5012246;28;24435;-76
2022/06/07 10:14:29;;;;;;;0.98;0.52;;;;;;;19.33;67.53;95783.31;5011886;28;24420;-75
2022/06/07 10:17:10;;;;;;;1.52;0.63;;;;;;;19.40;66.75;95782.72;5012032;28;24412;-75
2022/06/07 10:19:46;;;;;;;0.83;0.40;;;;;;;19.13;67.10;95786.22;5012152;28;24420;-75
2022/06/07 10:22:29;;;;;;;0.82;0.50;;;;;;;18.86;67.14;95782.66;5012095;28;24439;-75
2022/06/07 10:25:09;;;;;;;0.90;0.57;;;;;;;19.28;68.14;95784.72;5011630;28;25062;-75
2022/06/07 10:27:42;;;;;;;1.20;0.60;;;;;;;19.48;65.67;95773.09;5011742;28;24429;-75
2022/06/07 10:30:16;;;;;;;1.40;0.50;;;;;;;19.18;65.67;95768.22;5011821;28;24440;-74
2022/06/07 10:32:58;;;;;;;1.15;0.50;;;;;;;19.40;68.58;95765.16;5011683;28;25000;-74
2022/06/07 10:35:39;;;;;;;1.42;0.45;;;;;;;19.77;66.01;95761.53;5013699;28;24439;-74
2022/06/07 10:38:16;;;;;;;0.80;0.40;;;;;;;20.03;65.41;95770.25;5015574;28;24830;-74
2022/06/07 10:40:54;;;;;;;1.17;0.60;;;;;;;19.65;66.90;95770.63;5015774;28;24962;-74
2022/06/07 10:43:24;;;;;;;2.45;0.50;;;;;;;19.28;64.64;95767.19;5015971;28;24455;-75
2022/06/07 10:45:57;;;;;;;0.57;0.40;;;;;;;19.32;66.40;95771.16;5015086;28;24810;-77
2022/06/07 10:48:33;;;;;;;0.60;0.50;;;;;;;19.38;66.13;95769.72;5014287;28;24429;-74
2022/06/07 10:54:30;;;;;;;1.00;0.52;;;;;;;19.64;66.71;95769.81;5014247;28;24542;-74
2022/06/07 10:57:05;;;;;;;1.30;0.57;;;;;;;19.83;66.98;95768.78;5016438;28;24429;-74
2022/06/07 10:59:32;;;;;;;3.90;0.57;;;;;;;19.93;65.54;95764.28;5016415;28;24428;-75
2022/06/07 11:02:06;;;;;;;1.00;0.50;;;;;;;19.95;65.36;95764.97;5015853;28;25075;-74
2022/06/07 11:10:28;;;;;;;1.67;0.50;;;;;;;20.29;62.65;95766.81;5011314;28;25032;-74
2022/06/07 11:13:03;;;;;;;1.13;0.40;;;;;;;20.59;61.42;95762.03;5016582;28;24439;-74
2022/06/07 11:15:35;;;;;;;1.75;0.40;;;;;;;20.17;61.90;95765.41;5016255;28;24515;-74
2022/06/07 11:18:07;;;;;;;0.40;0.30;;;;;;;19.93;63.69;95756.38;5016155;28;24435;-74
2022/06/07 11:20:37;;;;;;;0.60;0.45;;;;;;;20.20;64.79;95759.84;5016262;28;25016;-74
2022/06/07 11:23:45;;;;;;;1.05;0.50;;;;;;;19.87;64.73;95756.16;5015028;28;24471;-74
2022/06/07 11:26:15;;;;;;;0.50;0.32;;;;;;;20.09;63.45;95749.56;5015122;28;24495;-74
2022/06/07 11:28:46;;;;;;;1.60;0.70;;;;;;;20.37;64.41;95750.22;4994882;28;24436;-74
2022/06/07 11:31:41;;;;;;;2.90;0.60;;;;;;;20.64;63.27;95750.03;4995448;28;24429;-74
2022/06/07 11:34:22;;;;;;;1.05;0.50;;;;;;;20.80;62.92;95738.75;4996258;28;24440;-74
2022/06/07 11:36:57;;;;;;;1.02;0.50;;;;;;;20.63;64.20;95744.94;4997948;28;24448;-75
2022/06/07 11:39:33;;;;;;;0.95;0.40;;;;;;;20.15;63.08;95746.34;4997477;28;24421;-75
2022/06/07 11:42:33;;;;;;;1.10;0.40;;;;;;;20.05;63.21;95747.25;4999671;28;24542;-75
2022/06/07 11:45:23;;;;;;;1.05;0.40;;;;;;;20.10;63.14;95738.06;5013632;28;24498;-75
2022/06/07 11:48:09;;;;;;;0.70;0.50;;;;;;;19.95;64.49;95728.16;5015087;28;24421;-75
2022/06/07 11:50:42;;;;;;;1.30;0.70;;;;;;;20.05;65.31;95734.09;5016133;28;24439;-75
2022/06/07 11:53:24;;;;;;;0.85;0.45;;;;;;;19.90;65.37;95727.78;5016494;28;24451;-74
2022/06/07 11:55:59;;;;;;;1.00;0.40;;;;;;;20.14;64.17;95724.47;5015081;28;24929;-76
2022/06/07 11:58:52;;;;;;;1.77;0.30;;;;;;;20.21;63.94;95722.03;5013892;28;24499;-74
2022/06/07 12:01:49;;;;;;;1.25;0.47;;;;;;;20.35;61.93;95728.50;5013158;28;24452;-75
2022/06/07 12:04:30;;;;;;;1.45;0.50;;;;;;;19.96;62.45;95716.66;4926303;29;24439;-75
2022/06/07 12:07:00;;;;;;;0.45;0.30;;;;;;;20.06;65.16;95714.75;4985136;28;24448;-75